sensor_id;sensor_type;location;lat;lon;timestamp;temperature;humidity
2995;DHT22;35277;49.890;8.222;2023-03-01T00:01:40;21.80;60.40
2995;DHT22;35277;49.890;8.222;2023-03-01T00:04:08;21.80;60.40
2995;DHT22;35277;49.890;8.222;2023-03-01T00:06:36;21.80;60.40
2995;DHT22;35277;49.890;8.222;2023-03-01T00:09:04;21.80;60.40
2995;DHT22;35277;49.890;8.222;2023-03-01T00:11:34;21.80;60.50
2995;DHT22;35277;49.890;8.222;2023-03-01T00:14:02;21.80;60.40
2995;DHT22;35277;49.890;8.222;2023-03-01T00:16:32;21.80;60.40
2995;DHT22;35277;49.890;8.222;2023-03-01T00:19:01;21.80;60.50
2995;DHT22;35277;49.890;8.222;2023-03-01T00:21:29;21.80;60.50
2995;DHT22;35277;49.890;8.222;2023-03-01T00:23:57;21.80;60.50
2995;DHT22;35277;49.890;8.222;2023-03-01T00:26:25;21.80;60.50
2995;DHT22;35277;49.890;8.222;2023-03-01T00:28:57;21.80;60.50
2995;DHT22;35277;49.890;8.222;2023-03-01T00:31:27;21.80;60.50
2995;DHT22;35277;49.890;8.222;2023-03-01T00:33:56;21.80;60.50
2995;DHT22;35277;49.890;8.222;2023-03-01T00:36:26;21.80;60.50
2995;DHT22;35277;49.890;8.222;2023-03-01T00:38:56;21.80;60.50
2995;DHT22;35277;49.890;8.222;2023-03-01T00:41:25;21.80;60.50
2995;DHT22;35277;49.890;8.222;2023-03-01T00:43:55;21.80;60.60
2995;DHT22;35277;49.890;8.222;2023-03-01T00:46:25;21.80;60.50
2995;DHT22;35277;49.890;8.222;2023-03-01T00:48:54;21.80;60.50
2995;DHT22;35277;49.890;8.222;2023-03-01T00:51:23;21.80;60.50
2995;DHT22;35277;49.890;8.222;2023-03-01T00:53:53;21.80;60.60
2995;DHT22;35277;49.890;8.222;2023-03-01T00:56:21;21.80;60.60
2995;DHT22;35277;49.890;8.222;2023-03-01T00:58:49;21.80;60.60
2995;DHT22;35277;49.890;8.222;2023-03-01T01:01:21;21.80;60.60
2995;DHT22;35277;49.890;8.222;2023-03-01T01:03:50;21.80;60.60
2995;DHT22;35277;49.890;8.222;2023-03-01T01:06:20;21.80;60.60
2995;DHT22;35277;49.890;8.222;2023-03-01T01:08:49;21.80;60.60
2995;DHT22;35277;49.890;8.222;2023-03-01T01:11:17;21.80;60.60
2995;DHT22;35277;49.890;8.222;2023-03-01T01:13:46;21.90;60.70
2995;DHT22;35277;49.890;8.222;2023-03-01T01:16:14;21.80;60.60
2995;DHT22;35277;49.890;8.222;2023-03-01T01:18:44;21.80;60.60
2995;DHT22;35277;49.890;8.222;2023-03-01T01:21:13;21.80;60.60
2995;DHT22;35277;49.890;8.222;2023-03-01T01:23:42;21.90;60.70
2995;DHT22;35277;49.890;8.222;2023-03-01T01:26:13;21.80;60.70
2995;DHT22;35277;49.890;8.222;2023-03-01T01:28:41;21.80;60.70
2995;DHT22;35277;49.890;8.222;2023-03-01T01:31:09;21.80;60.70
2995;DHT22;35277;49.890;8.222;2023-03-01T01:33:37;21.80;60.70
2995;DHT22;35277;49.890;8.222;2023-03-01T01:36:07;21.80;60.70
2995;DHT22;35277;49.890;8.222;2023-03-01T01:38:35;21.80;60.70
2995;DHT22;35277;49.890;8.222;2023-03-01T01:41:04;21.80;60.70
2995;DHT22;35277;49.890;8.222;2023-03-01T01:43:34;21.80;60.70
2995;DHT22;35277;49.890;8.222;2023-03-01T01:46:04;21.80;60.70
2995;DHT22;35277;49.890;8.222;2023-03-01T01:48:39;21.80;60.70
2995;DHT22;35277;49.890;8.222;2023-03-01T01:51:13;21.90;60.80
2995;DHT22;35277;49.890;8.222;2023-03-01T01:53:42;21.80;60.70
2995;DHT22;35277;49.890;8.222;2023-03-01T01:56:11;21.80;60.80
2995;DHT22;35277;49.890;8.222;2023-03-01T01:58:41;21.80;60.80
2995;DHT22;35277;49.890;8.222;2023-03-01T02:01:10;21.80;60.80
2995;DHT22;35277;49.890;8.222;2023-03-01T02:03:40;21.80;60.80
2995;DHT22;35277;49.890;8.222;2023-03-01T02:06:18;21.80;60.80
2995;DHT22;35277;49.890;8.222;2023-03-01T02:08:48;21.80;60.80
2995;DHT22;35277;49.890;8.222;2023-03-01T02:11:18;21.90;60.90
2995;DHT22;35277;49.890;8.222;2023-03-01T02:13:48;21.80;60.80
2995;DHT22;35277;49.890;8.222;2023-03-01T02:16:16;21.80;60.80
2995;DHT22;35277;49.890;8.222;2023-03-01T02:18:45;21.80;60.80
2995;DHT22;35277;49.890;8.222;2023-03-01T02:21:26;21.80;60.80
2995;DHT22;35277;49.890;8.222;2023-03-01T02:23:59;21.80;60.80
2995;DHT22;35277;49.890;8.222;2023-03-01T02:26:36;21.80;60.90
2995;DHT22;35277;49.890;8.222;2023-03-01T02:29:09;21.80;60.90
2995;DHT22;35277;49.890;8.222;2023-03-01T02:31:37;21.80;60.90
2995;DHT22;35277;49.890;8.222;2023-03-01T02:34:13;21.80;60.90
2995;DHT22;35277;49.890;8.222;2023-03-01T02:36:45;21.80;60.90
2995;DHT22;35277;49.890;8.222;2023-03-01T02:39:16;21.80;60.90
2995;DHT22;35277;49.890;8.222;2023-03-01T02:41:49;21.80;60.90
2995;DHT22;35277;49.890;8.222;2023-03-01T02:44:19;21.80;60.90
2995;DHT22;35277;49.890;8.222;2023-03-01T02:46:48;21.80;60.90
2995;DHT22;35277;49.890;8.222;2023-03-01T02:49:23;21.80;60.90
2995;DHT22;35277;49.890;8.222;2023-03-01T02:52:01;21.80;60.90
2995;DHT22;35277;49.890;8.222;2023-03-01T02:54:39;21.80;60.90
2995;DHT22;35277;49.890;8.222;2023-03-01T02:57:08;21.80;61.00
2995;DHT22;35277;49.890;8.222;2023-03-01T02:59:39;21.80;60.90
2995;DHT22;35277;49.890;8.222;2023-03-01T03:02:19;21.90;61.00
2995;DHT22;35277;49.890;8.222;2023-03-01T03:05:08;21.80;61.00
2995;DHT22;35277;49.890;8.222;2023-03-01T03:07:38;21.80;61.00
2995;DHT22;35277;49.890;8.222;2023-03-01T03:10:09;21.80;61.00
2995;DHT22;35277;49.890;8.222;2023-03-01T03:12:39;21.80;61.80
2995;DHT22;35277;49.890;8.222;2023-03-01T03:15:10;21.80;61.00
2995;DHT22;35277;49.890;8.222;2023-03-01T03:17:40;21.80;61.00
2995;DHT22;35277;49.890;8.222;2023-03-01T03:20:13;21.80;61.00
2995;DHT22;35277;49.890;8.222;2023-03-01T03:22:46;21.80;61.00
2995;DHT22;35277;49.890;8.222;2023-03-01T03:25:14;21.80;61.00
2995;DHT22;35277;49.890;8.222;2023-03-01T03:27:44;21.80;61.00
2995;DHT22;35277;49.890;8.222;2023-03-01T03:30:15;21.80;61.00
2995;DHT22;35277;49.890;8.222;2023-03-01T03:32:45;21.80;61.00
2995;DHT22;35277;49.890;8.222;2023-03-01T03:35:19;21.80;61.80
2995;DHT22;35277;49.890;8.222;2023-03-01T03:37:48;21.80;61.00
2995;DHT22;35277;49.890;8.222;2023-03-01T03:40:36;21.80;61.00
2995;DHT22;35277;49.890;8.222;2023-03-01T03:43:06;21.80;61.00
2995;DHT22;35277;49.890;8.222;2023-03-01T03:45:36;21.80;61.00
2995;DHT22;35277;49.890;8.222;2023-03-01T03:48:06;21.80;61.00
2995;DHT22;35277;49.890;8.222;2023-03-01T03:50:34;21.80;61.00
2995;DHT22;35277;49.890;8.222;2023-03-01T03:53:04;21.80;61.10
2995;DHT22;35277;49.890;8.222;2023-03-01T03:55:33;21.80;61.10
2995;DHT22;35277;49.890;8.222;2023-03-01T03:58:02;21.80;61.10
2995;DHT22;35277;49.890;8.222;2023-03-01T04:00:35;21.80;61.10
2995;DHT22;35277;49.890;8.222;2023-03-01T04:03:03;21.80;61.10
2995;DHT22;35277;49.890;8.222;2023-03-01T04:05:31;21.80;61.10
2995;DHT22;35277;49.890;8.222;2023-03-01T04:07:59;21.80;61.10
2995;DHT22;35277;49.890;8.222;2023-03-01T04:10:35;21.80;61.10
2995;DHT22;35277;49.890;8.222;2023-03-01T04:13:03;21.80;61.10
2995;DHT22;35277;49.890;8.222;2023-03-01T04:15:31;21.80;62.00
2995;DHT22;35277;49.890;8.222;2023-03-01T04:18:01;21.80;61.20
2995;DHT22;35277;49.890;8.222;2023-03-01T04:20:30;21.80;61.10
2995;DHT22;35277;49.890;8.222;2023-03-01T04:23:01;21.80;61.20
2995;DHT22;35277;49.890;8.222;2023-03-01T04:25:38;21.80;61.20
2995;DHT22;35277;49.890;8.222;2023-03-01T04:28:07;21.80;61.20
2995;DHT22;35277;49.890;8.222;2023-03-01T04:30:35;21.80;61.20
2995;DHT22;35277;49.890;8.222;2023-03-01T04:33:06;21.80;61.20
2995;DHT22;35277;49.890;8.222;2023-03-01T04:35:35;21.80;61.20
2995;DHT22;35277;49.890;8.222;2023-03-01T04:38:04;21.80;61.20
2995;DHT22;35277;49.890;8.222;2023-03-01T04:40:32;21.80;61.20
2995;DHT22;35277;49.890;8.222;2023-03-01T04:43:00;21.80;61.20
2995;DHT22;35277;49.890;8.222;2023-03-01T04:45:28;21.80;61.30
2995;DHT22;35277;49.890;8.222;2023-03-01T04:47:56;21.80;61.30
2995;DHT22;35277;49.890;8.222;2023-03-01T04:50:26;21.80;61.20
2995;DHT22;35277;49.890;8.222;2023-03-01T04:52:54;21.80;61.20
2995;DHT22;35277;49.890;8.222;2023-03-01T04:55:26;21.80;61.20
2995;DHT22;35277;49.890;8.222;2023-03-01T04:57:54;21.80;61.30
2995;DHT22;35277;49.890;8.222;2023-03-01T05:00:22;21.80;61.20
2995;DHT22;35277;49.890;8.222;2023-03-01T05:02:52;21.80;61.20
2995;DHT22;35277;49.890;8.222;2023-03-01T05:05:24;21.80;61.30
2995;DHT22;35277;49.890;8.222;2023-03-01T05:07:55;21.80;61.30
2995;DHT22;35277;49.890;8.222;2023-03-01T05:10:24;21.80;61.20
2995;DHT22;35277;49.890;8.222;2023-03-01T05:12:52;21.80;61.20
2995;DHT22;35277;49.890;8.222;2023-03-01T05:15:20;21.70;61.00
2995;DHT22;35277;49.890;8.222;2023-03-01T05:17:52;21.70;61.00
2995;DHT22;35277;49.890;8.222;2023-03-01T05:20:21;21.70;61.00
2995;DHT22;35277;49.890;8.222;2023-03-01T05:22:50;21.80;61.00
2995;DHT22;35277;49.890;8.222;2023-03-01T05:25:19;21.70;60.90
2995;DHT22;35277;49.890;8.222;2023-03-01T05:27:48;21.80;61.00
2995;DHT22;35277;49.890;8.222;2023-03-01T05:30:16;21.70;60.80
2995;DHT22;35277;49.890;8.222;2023-03-01T05:32:46;21.70;60.80
2995;DHT22;35277;49.890;8.222;2023-03-01T05:35:16;21.70;60.70
2995;DHT22;35277;49.890;8.222;2023-03-01T05:37:45;21.70;60.70
2995;DHT22;35277;49.890;8.222;2023-03-01T05:40:16;21.70;60.60
2995;DHT22;35277;49.890;8.222;2023-03-01T05:42:47;21.70;60.60
2995;DHT22;35277;49.890;8.222;2023-03-01T05:45:16;21.70;60.50
2995;DHT22;35277;49.890;8.222;2023-03-01T05:47:46;21.70;60.40
2995;DHT22;35277;49.890;8.222;2023-03-01T05:50:15;21.70;60.40
2995;DHT22;35277;49.890;8.222;2023-03-01T05:52:46;21.70;60.30
2995;DHT22;35277;49.890;8.222;2023-03-01T05:55:15;21.70;60.30
2995;DHT22;35277;49.890;8.222;2023-03-01T05:57:43;21.70;60.20
2995;DHT22;35277;49.890;8.222;2023-03-01T06:00:14;21.70;60.20
2995;DHT22;35277;49.890;8.222;2023-03-01T06:02:42;21.70;60.20
2995;DHT22;35277;49.890;8.222;2023-03-01T06:05:12;21.70;60.10
2995;DHT22;35277;49.890;8.222;2023-03-01T06:07:40;21.70;60.10
2995;DHT22;35277;49.890;8.222;2023-03-01T06:10:09;21.70;60.80
2995;DHT22;35277;49.890;8.222;2023-03-01T06:12:38;21.70;60.00
2995;DHT22;35277;49.890;8.222;2023-03-01T06:15:07;21.70;60.00
2995;DHT22;35277;49.890;8.222;2023-03-01T06:17:38;21.70;59.90
2995;DHT22;35277;49.890;8.222;2023-03-01T06:20:09;21.70;60.10
2995;DHT22;35277;49.890;8.222;2023-03-01T06:22:37;21.70;60.60
2995;DHT22;35277;49.890;8.222;2023-03-01T06:25:06;21.70;61.00
2995;DHT22;35277;49.890;8.222;2023-03-01T06:27:34;21.70;61.40
2995;DHT22;35277;49.890;8.222;2023-03-01T06:30:02;21.80;61.60
2995;DHT22;35277;49.890;8.222;2023-03-01T06:32:30;21.80;61.60
2995;DHT22;35277;49.890;8.222;2023-03-01T06:34:59;21.80;61.70
2995;DHT22;35277;49.890;8.222;2023-03-01T06:37:27;21.80;61.80
2995;DHT22;35277;49.890;8.222;2023-03-01T06:39:55;21.80;61.70
2995;DHT22;35277;49.890;8.222;2023-03-01T06:42:22;21.80;61.80
2995;DHT22;35277;49.890;8.222;2023-03-01T06:44:50;21.80;62.70
2995;DHT22;35277;49.890;8.222;2023-03-01T06:47:18;21.80;61.80
2995;DHT22;35277;49.890;8.222;2023-03-01T06:49:45;21.80;61.80
2995;DHT22;35277;49.890;8.222;2023-03-01T06:52:14;21.80;61.60
2995;DHT22;35277;49.890;8.222;2023-03-01T06:54:42;21.80;61.40
2995;DHT22;35277;49.890;8.222;2023-03-01T06:57:10;21.80;61.10
2995;DHT22;35277;49.890;8.222;2023-03-01T06:59:37;21.80;60.90
2995;DHT22;35277;49.890;8.222;2023-03-01T07:02:05;21.80;60.70
2995;DHT22;35277;49.890;8.222;2023-03-01T07:04:33;21.80;60.50
2995;DHT22;35277;49.890;8.222;2023-03-01T07:07:01;21.80;60.40
2995;DHT22;35277;49.890;8.222;2023-03-01T07:09:30;21.70;60.20
2995;DHT22;35277;49.890;8.222;2023-03-01T07:11:58;21.80;60.10
2995;DHT22;35277;49.890;8.222;2023-03-01T07:14:26;21.70;60.00
2995;DHT22;35277;49.890;8.222;2023-03-01T07:16:54;21.70;59.90
2995;DHT22;35277;49.890;8.222;2023-03-01T07:19:22;21.70;59.80
2995;DHT22;35277;49.890;8.222;2023-03-01T07:21:50;21.70;59.70
2995;DHT22;35277;49.890;8.222;2023-03-01T07:24:18;21.70;59.70
2995;DHT22;35277;49.890;8.222;2023-03-01T07:26:49;21.70;59.60
2995;DHT22;35277;49.890;8.222;2023-03-01T07:29:18;21.80;59.70
2995;DHT22;35277;49.890;8.222;2023-03-01T07:31:45;21.70;59.50
2995;DHT22;35277;49.890;8.222;2023-03-01T07:34:13;21.80;59.60
2995;DHT22;35277;49.890;8.222;2023-03-01T07:36:41;21.80;59.50
2995;DHT22;35277;49.890;8.222;2023-03-01T07:39:10;21.80;59.60
2995;DHT22;35277;49.890;8.222;2023-03-01T07:41:37;21.80;59.70
2995;DHT22;35277;49.890;8.222;2023-03-01T07:44:06;21.80;59.80
2995;DHT22;35277;49.890;8.222;2023-03-01T07:46:34;21.80;59.80
2995;DHT22;35277;49.890;8.222;2023-03-01T07:49:02;21.80;59.90
2995;DHT22;35277;49.890;8.222;2023-03-01T07:51:31;21.80;59.90
2995;DHT22;35277;49.890;8.222;2023-03-01T07:53:58;21.80;59.90
2995;DHT22;35277;49.890;8.222;2023-03-01T07:56:26;21.80;59.90
2995;DHT22;35277;49.890;8.222;2023-03-01T07:58:54;21.80;59.90
2995;DHT22;35277;49.890;8.222;2023-03-01T08:01:23;21.80;59.80
2995;DHT22;35277;49.890;8.222;2023-03-01T08:03:51;21.80;59.80
2995;DHT22;35277;49.890;8.222;2023-03-01T08:06:19;21.80;59.80
2995;DHT22;35277;49.890;8.222;2023-03-01T08:08:47;21.80;59.80
2995;DHT22;35277;49.890;8.222;2023-03-01T08:11:15;21.80;59.80
2995;DHT22;35277;49.890;8.222;2023-03-01T08:13:43;21.80;59.80
2995;DHT22;35277;49.890;8.222;2023-03-01T08:16:13;21.80;59.70
2995;DHT22;35277;49.890;8.222;2023-03-01T08:18:42;21.90;59.80
2995;DHT22;35277;49.890;8.222;2023-03-01T08:21:12;21.80;59.70
2995;DHT22;35277;49.890;8.222;2023-03-01T08:23:41;21.80;59.70
2995;DHT22;35277;49.890;8.222;2023-03-01T08:26:10;21.80;59.70
2995;DHT22;35277;49.890;8.222;2023-03-01T08:28:39;21.80;59.80
2995;DHT22;35277;49.890;8.222;2023-03-01T08:31:14;21.80;59.90
2995;DHT22;35277;49.890;8.222;2023-03-01T08:33:44;21.80;59.90
2995;DHT22;35277;49.890;8.222;2023-03-01T08:36:17;21.80;59.90
2995;DHT22;35277;49.890;8.222;2023-03-01T08:38:44;21.80;59.90
2995;DHT22;35277;49.890;8.222;2023-03-01T08:41:13;21.80;59.80
2995;DHT22;35277;49.890;8.222;2023-03-01T08:43:41;21.80;59.80
2995;DHT22;35277;49.890;8.222;2023-03-01T08:46:09;21.80;59.80
2995;DHT22;35277;49.890;8.222;2023-03-01T08:48:37;21.80;59.70
2995;DHT22;35277;49.890;8.222;2023-03-01T08:51:12;21.80;59.70
2995;DHT22;35277;49.890;8.222;2023-03-01T08:53:40;21.80;59.80
2995;DHT22;35277;49.890;8.222;2023-03-01T08:56:09;21.80;59.70
2995;DHT22;35277;49.890;8.222;2023-03-01T08:58:37;21.80;59.70
2995;DHT22;35277;49.890;8.222;2023-03-01T09:01:10;21.80;59.70
2995;DHT22;35277;49.890;8.222;2023-03-01T09:03:39;21.90;59.80
2995;DHT22;35277;49.890;8.222;2023-03-01T09:06:08;21.80;59.60
2995;DHT22;35277;49.890;8.222;2023-03-01T09:08:38;21.80;59.70
2995;DHT22;35277;49.890;8.222;2023-03-01T09:11:07;21.90;59.70
2995;DHT22;35277;49.890;8.222;2023-03-01T09:13:35;21.90;59.70
2995;DHT22;35277;49.890;8.222;2023-03-01T09:16:05;21.90;59.70
2995;DHT22;35277;49.890;8.222;2023-03-01T09:18:35;21.90;59.70
2995;DHT22;35277;49.890;8.222;2023-03-01T09:21:04;21.90;59.70
2995;DHT22;35277;49.890;8.222;2023-03-01T09:23:34;21.90;59.70
2995;DHT22;35277;49.890;8.222;2023-03-01T09:26:04;21.90;59.70
2995;DHT22;35277;49.890;8.222;2023-03-01T09:28:32;21.90;59.70
2995;DHT22;35277;49.890;8.222;2023-03-01T09:31:01;21.90;59.70
2995;DHT22;35277;49.890;8.222;2023-03-01T09:33:30;21.90;59.70
2995;DHT22;35277;49.890;8.222;2023-03-01T09:35:58;21.90;59.70
2995;DHT22;35277;49.890;8.222;2023-03-01T09:38:27;21.90;59.70
2995;DHT22;35277;49.890;8.222;2023-03-01T09:40:55;21.90;59.70
2995;DHT22;35277;49.890;8.222;2023-03-01T09:43:29;21.90;59.70
2995;DHT22;35277;49.890;8.222;2023-03-01T09:46:00;21.90;59.60
2995;DHT22;35277;49.890;8.222;2023-03-01T09:48:38;22.00;59.70
2995;DHT22;35277;49.890;8.222;2023-03-01T09:51:14;22.00;59.70
2995;DHT22;35277;49.890;8.222;2023-03-01T09:53:44;22.00;59.60
2995;DHT22;35277;49.890;8.222;2023-03-01T09:56:16;22.00;59.60
2995;DHT22;35277;49.890;8.222;2023-03-01T09:58:53;22.00;59.60
2995;DHT22;35277;49.890;8.222;2023-03-01T10:01:28;22.00;59.50
2995;DHT22;35277;49.890;8.222;2023-03-01T10:04:09;22.00;59.40
2995;DHT22;35277;49.890;8.222;2023-03-01T10:06:43;22.00;59.40
2995;DHT22;35277;49.890;8.222;2023-03-01T10:09:16;22.00;59.30
2995;DHT22;35277;49.890;8.222;2023-03-01T10:11:48;22.00;59.30
2995;DHT22;35277;49.890;8.222;2023-03-01T10:14:29;22.00;59.20
2995;DHT22;35277;49.890;8.222;2023-03-01T10:16:59;22.10;59.30
2995;DHT22;35277;49.890;8.222;2023-03-01T10:19:32;22.10;59.20
2995;DHT22;35277;49.890;8.222;2023-03-01T10:22:05;22.10;59.10
2995;DHT22;35277;49.890;8.222;2023-03-01T10:24:37;22.10;59.10
2995;DHT22;35277;49.890;8.222;2023-03-01T10:27:07;22.10;59.00
2995;DHT22;35277;49.890;8.222;2023-03-01T10:29:43;22.10;59.00
2995;DHT22;35277;49.890;8.222;2023-03-01T10:32:13;22.10;59.00
2995;DHT22;35277;49.890;8.222;2023-03-01T10:34:41;22.10;59.00
2995;DHT22;35277;49.890;8.222;2023-03-01T10:37:12;22.20;59.10
2995;DHT22;35277;49.890;8.222;2023-03-01T10:39:58;22.20;59.10
2995;DHT22;35277;49.890;8.222;2023-03-01T10:42:30;22.20;59.20
2995;DHT22;35277;49.890;8.222;2023-03-01T10:45:15;22.20;59.20
2995;DHT22;35277;49.890;8.222;2023-03-01T10:47:43;22.20;59.30
2995;DHT22;35277;49.890;8.222;2023-03-01T10:50:19;22.20;59.20
2995;DHT22;35277;49.890;8.222;2023-03-01T10:52:57;22.20;59.30
2995;DHT22;35277;49.890;8.222;2023-03-01T10:55:30;22.20;59.20
2995;DHT22;35277;49.890;8.222;2023-03-01T10:58:16;22.30;59.40
2995;DHT22;35277;49.890;8.222;2023-03-01T11:00:49;22.30;59.40
2995;DHT22;35277;49.890;8.222;2023-03-01T11:03:21;22.30;59.20
2995;DHT22;35277;49.890;8.222;2023-03-01T11:05:55;22.30;59.20
2995;DHT22;35277;49.890;8.222;2023-03-01T11:08:32;22.30;59.00
2995;DHT22;35277;49.890;8.222;2023-03-01T11:11:18;22.20;58.80
2995;DHT22;35277;49.890;8.222;2023-03-01T11:13:56;22.30;58.80
2995;DHT22;35277;49.890;8.222;2023-03-01T11:16:28;22.30;58.70
2995;DHT22;35277;49.890;8.222;2023-03-01T11:18:59;22.30;58.70
2995;DHT22;35277;49.890;8.222;2023-03-01T11:21:28;22.30;58.70
2995;DHT22;35277;49.890;8.222;2023-03-01T11:24:00;22.30;58.80
2995;DHT22;35277;49.890;8.222;2023-03-01T11:26:30;22.30;58.90
2995;DHT22;35277;49.890;8.222;2023-03-01T11:29:05;22.40;59.10
2995;DHT22;35277;49.890;8.222;2023-03-01T11:31:35;22.40;59.10
2995;DHT22;35277;49.890;8.222;2023-03-01T11:34:13;22.40;59.00
2995;DHT22;35277;49.890;8.222;2023-03-01T11:36:46;22.40;58.80
2995;DHT22;35277;49.890;8.222;2023-03-01T11:39:20;22.40;58.60
2995;DHT22;35277;49.890;8.222;2023-03-01T11:41:52;22.40;58.10
2995;DHT22;35277;49.890;8.222;2023-03-01T11:44:40;22.40;57.80
2995;DHT22;35277;49.890;8.222;2023-03-01T11:47:24;22.30;57.40
2995;DHT22;35277;49.890;8.222;2023-03-01T11:50:16;22.30;57.20
2995;DHT22;35277;49.890;8.222;2023-03-01T11:52:59;22.30;57.10
2995;DHT22;35277;49.890;8.222;2023-03-01T11:55:48;22.30;57.00
2995;DHT22;35277;49.890;8.222;2023-03-01T11:58:27;22.30;57.00
2995;DHT22;35277;49.890;8.222;2023-03-01T12:01:12;22.30;56.90
2995;DHT22;35277;49.890;8.222;2023-03-01T12:06:55;22.30;56.90
2995;DHT22;35277;49.890;8.222;2023-03-01T12:09:35;22.30;57.50
2995;DHT22;35277;49.890;8.222;2023-03-01T12:12:27;22.30;57.00
2995;DHT22;35277;49.890;8.222;2023-03-01T12:15:11;22.30;57.00
2995;DHT22;35277;49.890;8.222;2023-03-01T12:18:03;22.40;57.00
2995;DHT22;35277;49.890;8.222;2023-03-01T12:20:42;22.40;57.10
2995;DHT22;35277;49.890;8.222;2023-03-01T12:23:25;22.40;57.10
2995;DHT22;35277;49.890;8.222;2023-03-01T12:25:59;22.40;57.10
2995;DHT22;35277;49.890;8.222;2023-03-01T12:28:39;22.40;57.10
2995;DHT22;35277;49.890;8.222;2023-03-01T12:34:42;22.40;57.10
2995;DHT22;35277;49.890;8.222;2023-03-01T12:37:22;22.40;57.10
2995;DHT22;35277;49.890;8.222;2023-03-01T12:40:03;22.50;57.20
2995;DHT22;35277;49.890;8.222;2023-03-01T12:42:43;22.50;57.20
2995;DHT22;35277;49.890;8.222;2023-03-01T12:45:30;22.50;57.20
2995;DHT22;35277;49.890;8.222;2023-03-01T12:48:14;22.50;57.30
2995;DHT22;35277;49.890;8.222;2023-03-01T12:50:47;22.50;57.20
2995;DHT22;35277;49.890;8.222;2023-03-01T12:53:23;22.50;57.20
2995;DHT22;35277;49.890;8.222;2023-03-01T12:55:53;22.50;57.20
2995;DHT22;35277;49.890;8.222;2023-03-01T12:58:26;22.50;57.20
2995;DHT22;35277;49.890;8.222;2023-03-01T13:01:17;22.50;57.20
2995;DHT22;35277;49.890;8.222;2023-03-01T13:04:06;22.50;57.20
2995;DHT22;35277;49.890;8.222;2023-03-01T13:06:41;22.60;57.30
2995;DHT22;35277;49.890;8.222;2023-03-01T13:09:21;22.50;57.20
2995;DHT22;35277;49.890;8.222;2023-03-01T13:11:50;22.60;57.30
2995;DHT22;35277;49.890;8.222;2023-03-01T13:14:36;22.60;57.30
2995;DHT22;35277;49.890;8.222;2023-03-01T13:17:04;22.60;57.30
2995;DHT22;35277;49.890;8.222;2023-03-01T13:19:32;22.60;57.30
2995;DHT22;35277;49.890;8.222;2023-03-01T13:22:26;22.60;57.30
2995;DHT22;35277;49.890;8.222;2023-03-01T13:25:12;22.60;57.40
2995;DHT22;35277;49.890;8.222;2023-03-01T13:27:40;22.60;57.40
2995;DHT22;35277;49.890;8.222;2023-03-01T13:30:38;22.60;57.30
2995;DHT22;35277;49.890;8.222;2023-03-01T13:33:33;22.60;57.40
2995;DHT22;35277;49.890;8.222;2023-03-01T13:36:03;22.70;57.40
2995;DHT22;35277;49.890;8.222;2023-03-01T13:38:39;22.60;57.30
2995;DHT22;35277;49.890;8.222;2023-03-01T13:41:14;22.60;57.40
2995;DHT22;35277;49.890;8.222;2023-03-01T13:43:44;22.70;57.40
2995;DHT22;35277;49.890;8.222;2023-03-01T13:46:17;22.70;57.50
2995;DHT22;35277;49.890;8.222;2023-03-01T13:48:49;22.70;57.50
2995;DHT22;35277;49.890;8.222;2023-03-01T13:51:21;22.70;57.50
2995;DHT22;35277;49.890;8.222;2023-03-01T13:53:51;22.70;57.50
2995;DHT22;35277;49.890;8.222;2023-03-01T13:56:24;22.70;57.30
2995;DHT22;35277;49.890;8.222;2023-03-01T13:58:55;22.70;57.10
2995;DHT22;35277;49.890;8.222;2023-03-01T14:01:28;22.70;56.80
2995;DHT22;35277;49.890;8.222;2023-03-01T14:03:57;22.70;56.60
2995;DHT22;35277;49.890;8.222;2023-03-01T14:06:26;22.70;56.30
2995;DHT22;35277;49.890;8.222;2023-03-01T14:09:03;22.70;56.10
2995;DHT22;35277;49.890;8.222;2023-03-01T14:11:57;22.70;55.80
2995;DHT22;35277;49.890;8.222;2023-03-01T14:14:40;22.60;55.50
2995;DHT22;35277;49.890;8.222;2023-03-01T14:17:40;22.70;55.30
2995;DHT22;35277;49.890;8.222;2023-03-01T14:20:14;22.60;54.90
2995;DHT22;35277;49.890;8.222;2023-03-01T14:22:44;22.70;54.90
2995;DHT22;35277;49.890;8.222;2023-03-01T14:25:26;22.70;54.90
2995;DHT22;35277;49.890;8.222;2023-03-01T14:27:58;22.70;54.80
2995;DHT22;35277;49.890;8.222;2023-03-01T14:30:34;22.70;54.80
2995;DHT22;35277;49.890;8.222;2023-03-01T14:33:04;22.70;54.80
2995;DHT22;35277;49.890;8.222;2023-03-01T14:35:34;22.70;54.90
2995;DHT22;35277;49.890;8.222;2023-03-01T14:38:03;22.80;54.90
2995;DHT22;35277;49.890;8.222;2023-03-01T14:40:34;22.80;55.00
2995;DHT22;35277;49.890;8.222;2023-03-01T14:43:11;22.80;55.00
2995;DHT22;35277;49.890;8.222;2023-03-01T14:45:39;22.80;55.10
2995;DHT22;35277;49.890;8.222;2023-03-01T14:48:14;22.90;55.20
2995;DHT22;35277;49.890;8.222;2023-03-01T14:50:43;22.90;55.30
2995;DHT22;35277;49.890;8.222;2023-03-01T14:53:16;22.90;55.30
2995;DHT22;35277;49.890;8.222;2023-03-01T14:55:47;22.90;55.30
2995;DHT22;35277;49.890;8.222;2023-03-01T14:58:20;22.90;55.40
2995;DHT22;35277;49.890;8.222;2023-03-01T15:00:50;23.00;55.40
2995;DHT22;35277;49.890;8.222;2023-03-01T15:03:24;22.90;55.40
2995;DHT22;35277;49.890;8.222;2023-03-01T15:05:53;23.00;55.50
2995;DHT22;35277;49.890;8.222;2023-03-01T15:08:23;23.00;55.50
2995;DHT22;35277;49.890;8.222;2023-03-01T15:11:00;23.00;55.50
2995;DHT22;35277;49.890;8.222;2023-03-01T15:13:31;23.00;55.50
2995;DHT22;35277;49.890;8.222;2023-03-01T15:16:09;23.00;55.60
2995;DHT22;35277;49.890;8.222;2023-03-01T15:18:43;23.00;55.60
2995;DHT22;35277;49.890;8.222;2023-03-01T15:21:17;23.00;55.70
2995;DHT22;35277;49.890;8.222;2023-03-01T15:23:49;23.00;55.70
2995;DHT22;35277;49.890;8.222;2023-03-01T15:26:25;23.00;55.70
2995;DHT22;35277;49.890;8.222;2023-03-01T15:28:59;23.00;55.80
2995;DHT22;35277;49.890;8.222;2023-03-01T15:31:29;23.00;55.80
2995;DHT22;35277;49.890;8.222;2023-03-01T15:34:20;23.00;55.90
2995;DHT22;35277;49.890;8.222;2023-03-01T15:36:51;23.00;55.90
2995;DHT22;35277;49.890;8.222;2023-03-01T15:39:34;23.00;56.00
2995;DHT22;35277;49.890;8.222;2023-03-01T15:42:05;23.00;56.10
2995;DHT22;35277;49.890;8.222;2023-03-01T15:44:36;23.00;56.10
2995;DHT22;35277;49.890;8.222;2023-03-01T15:47:23;23.00;56.20
2995;DHT22;35277;49.890;8.222;2023-03-01T15:49:54;23.10;56.40
2995;DHT22;35277;49.890;8.222;2023-03-01T15:52:24;23.10;56.30
2995;DHT22;35277;49.890;8.222;2023-03-01T15:54:57;23.10;56.40
2995;DHT22;35277;49.890;8.222;2023-03-01T15:57:25;23.10;56.50
2995;DHT22;35277;49.890;8.222;2023-03-01T15:59:54;23.10;56.50
2995;DHT22;35277;49.890;8.222;2023-03-01T16:02:22;23.10;56.60
2995;DHT22;35277;49.890;8.222;2023-03-01T16:04:51;23.10;56.60
2995;DHT22;35277;49.890;8.222;2023-03-01T16:07:20;23.10;56.60
2995;DHT22;35277;49.890;8.222;2023-03-01T16:09:47;23.10;56.60
2995;DHT22;35277;49.890;8.222;2023-03-01T16:12:16;23.10;56.70
2995;DHT22;35277;49.890;8.222;2023-03-01T16:14:44;23.10;56.70
2995;DHT22;35277;49.890;8.222;2023-03-01T16:17:13;23.10;56.70
2995;DHT22;35277;49.890;8.222;2023-03-01T16:19:41;23.10;56.80
2995;DHT22;35277;49.890;8.222;2023-03-01T16:22:10;23.10;56.80